Time;durP1;ratioP1;P1;durP2;ratioP2;P2;SDS_P1;SDS_P2;PMS_P1;PMS_P2;Temp;Humidity;BMP_temperature;BMP_pressure;BME280_temperature;BME280_humidity;BME280_pressure;Samples;Min_cycle;Max_cycle;Signal;HPM_P1;HPM_P2
2021/08/13 00:02:17;;;;;;;4.57;3.12;;;25.20;62.00;;;;;;2242081;55;20988;-84
2021/08/13 00:04:44;;;;;;;5.62;3.50;;;25.20;62.00;;;;;;2243101;55;21003;-85
2021/08/13 00:07:10;;;;;;;5.15;3.42;;;25.20;62.00;;;;;;2245704;55;20968;-84
2021/08/13 00:09:36;;;;;;;5.32;3.37;;;25.20;62.00;;;;;;2460883;55;21004;-83
2021/08/13 00:12:03;;;;;;;5.40;3.35;;;25.20;62.00;;;;;;2464453;55;20925;-84
2021/08/13 00:14:29;;;;;;;5.53;3.40;;;25.20;62.00;;;;;;2249152;55;21032;-83
2021/08/13 00:16:55;;;;;;;5.20;3.17;;;25.20;62.00;;;;;;2462743;55;21036;-84
2021/08/13 00:19:22;;;;;;;5.82;3.20;;;25.20;62.00;;;;;;2239357;55;20964;-83
2021/08/13 00:21:49;;;;;;;4.80;2.85;;;25.20;61.90;;;;;;2463071;55;21928;-84
2021/08/13 00:24:16;;;;;;;4.93;3.08;;;25.20;61.90;;;;;;2246152;55;21073;-84
2021/08/13 00:26:42;;;;;;;4.43;3.00;;;25.20;61.90;;;;;;2221864;56;20956;-85
2021/08/13 00:29:09;;;;;;;5.85;3.47;;;25.10;61.70;;;;;;2461780;55;21006;-84
2021/08/13 00:31:35;;;;;;;5.30;3.37;;;25.20;62.20;;;;;;2246758;55;20979;-84
2021/08/13 00:34:01;;;;;;;5.85;3.60;;;25.10;61.90;;;;;;2242146;55;21783;-85
2021/08/13 00:36:28;;;;;;;4.97;3.03;;;25.10;62.00;;;;;;2458039;55;20953;-84
2021/08/13 00:38:54;;;;;;;5.10;3.22;;;25.10;62.20;;;;;;2462699;55;21045;-83
2021/08/13 00:41:21;;;;;;;6.10;3.60;;;25.10;63.00;;;;;;2243008;55;20944;-84
2021/08/13 00:43:47;;;;;;;5.90;3.30;;;25.10;62.40;;;;;;2462746;55;21009;-84
2021/08/13 00:46:14;;;;;;;5.07;3.17;;;25.10;62.40;;;;;;2460258;55;20948;-84
2021/08/13 00:48:41;;;;;;;4.55;3.20;;;25.10;62.50;;;;;;2244676;55;20988;-84
2021/08/13 00:51:07;;;;;;;5.05;2.87;;;25.10;62.50;;;;;;2461786;55;20945;-85
2021/08/13 00:53:33;;;;;;;4.93;3.33;;;25.10;62.50;;;;;;2461749;55;20960;-83
2021/08/13 00:55:59;;;;;;;5.93;3.40;;;25.00;62.40;;;;;;2245936;55;20989;-84
2021/08/13 00:58:26;;;;;;;5.03;3.03;;;25.10;62.50;;;;;;2462511;55;20937;-84
2021/08/13 01:00:53;;;;;;;5.30;2.87;;;25.00;62.40;;;;;;2460374;55;20968;-84
2021/08/13 01:03:19;;;;;;;5.10;2.90;;;25.00;62.40;;;;;;2460494;55;21893;-83
2021/08/13 01:05:46;;;;;;;5.25;3.50;;;25.00;62.40;;;;;;2243288;55;21004;-84
2021/08/13 01:08:12;;;;;;;5.20;3.22;;;25.00;62.50;;;;;;2460975;55;20992;-84
2021/08/13 01:10:46;;;;;;;5.10;3.03;;;25.00;62.60;;;;;;2460919;55;21043;-83
2021/08/13 01:13:14;;;;;;;5.75;3.25;;;25.00;62.60;;;;;;2242385;55;21318;-84
2021/08/13 01:15:43;;;;;;;6.32;3.62;;;25.00;62.80;;;;;;2463236;55;21017;-84
2021/08/13 01:18:16;;;;;;;4.68;3.25;;;24.90;62.80;;;;;;2461197;55;20933;-84
2021/08/13 01:21:21;;;;;;;5.50;3.30;;;24.90;62.90;;;;;;2458715;55;20940;-84
2021/08/13 01:24:22;;;;;;;5.07;3.42;;;25.00;62.90;;;;;;2250712;55;22041;-83
2021/08/13 01:27:00;;;;;;;5.40;3.83;;;24.90;63.00;;;;;;2241415;55;20964;-86
2021/08/13 01:29:51;;;;;;;5.93;3.80;;;25.00;63.30;;;;;;2462594;55;20973;-84
2021/08/13 01:32:54;;;;;;;6.30;4.10;;;25.00;63.50;;;;;;2438362;55;20992;-83
2021/08/13 01:35:30;;;;;;;;;;;25.00;63.60;;;;;;2246879;55;22062;-83
2021/08/13 01:38:02;;;;;;;4.65;2.72;;;25.00;63.40;;;;;;2243399;55;20110;-84
2021/08/13 01:40:28;;;;;;;4.78;2.72;;;25.00;63.50;;;;;;2460205;55;21851;-84
2021/08/13 01:42:55;;;;;;;4.95;2.97;;;25.10;63.60;;;;;;2462903;55;20976;-84
2021/08/13 01:45:23;;;;;;;6.22;3.58;;;25.00;63.50;;;;;;2462332;55;20972;-83
2021/08/13 01:47:51;;;;;;;5.20;3.15;;;25.00;63.60;;;;;;2255403;55;21039;-84
2021/08/13 01:50:17;;;;;;;4.60;2.97;;;25.10;63.60;;;;;;2239923;55;21474;-85
2021/08/13 01:52:43;;;;;;;5.20;3.20;;;25.10;63.60;;;;;;2437590;55;20996;-85
2021/08/13 01:55:11;;;;;;;4.80;2.97;;;25.10;63.60;;;;;;2462026;55;20929;-85
2021/08/13 01:57:37;;;;;;;6.07;3.65;;;25.10;63.70;;;;;;2462182;55;20993;-83
2021/08/13 02:00:04;;;;;;;5.20;3.30;;;25.10;63.60;;;;;;2462160;55;21068;-85
2021/08/13 02:02:31;;;;;;;5.47;3.30;;;25.10;63.70;;;;;;2247525;55;20984;-84
2021/08/13 02:04:57;;;;;;;5.62;3.47;;;25.10;63.70;;;;;;2242757;55;20960;-84
2021/08/13 02:07:24;;;;;;;6.70;3.80;;;25.20;63.60;;;;;;2461662;55;20973;-85
2021/08/13 02:09:50;;;;;;;5.45;3.22;;;25.20;63.70;;;;;;2463073;55;21029;-84
2021/08/13 02:12:16;;;;;;;5.30;3.47;;;25.20;63.60;;;;;;2462908;55;20947;-83
2021/08/13 02:14:43;;;;;;;6.00;3.53;;;25.20;63.60;;;;;;2463738;55;21113;-85
2021/08/13 02:17:18;;;;;;;7.03;3.22;;;25.30;63.60;;;;;;2243484;55;20960;-84
2021/08/13 02:20:05;;;;;;;5.70;2.97;;;25.30;63.30;;;;;;2244716;55;20965;-85
2021/08/13 02:22:31;;;;;;;4.05;2.45;;;25.40;63.10;;;;;;2466017;55;20964;-84
2021/08/13 02:24:57;;;;;;;7.03;3.03;;;25.40;63.30;;;;;;2461643;55;20968;-85
2021/08/13 02:27:26;;;;;;;4.47;2.40;;;25.40;63.10;;;;;;2465099;55;20973;-83
2021/08/13 02:29:53;;;;;;;4.57;2.28;;;25.50;63.10;;;;;;2243107;55;20960;-84
2021/08/13 02:32:19;;;;;;;5.28;2.50;;;25.50;62.90;;;;;;2464755;55;21028;-84
2021/08/13 02:34:46;;;;;;;5.82;2.20;;;25.60;62.80;;;;;;2245679;55;20957;-84
2021/08/13 02:37:30;;;;;;;4.40;2.30;;;25.60;62.60;;;;;;2465846;55;20972;-85
2021/08/13 02:40:02;;;;;;;4.32;2.20;;;25.70;61.90;;;;;;2241509;55;21033;-84
2021/08/13 02:42:47;;;;;;;4.28;1.98;;;25.70;62.10;;;;;;2252217;55;21035;-83
2021/08/13 02:45:14;;;;;;;4.85;2.10;;;25.70;62.10;;;;;;2438670;55;20976;-84
2021/08/13 02:47:40;;;;;;;3.00;1.65;;;25.80;62.10;;;;;;2245692;55;21016;-85
2021/08/13 02:50:08;;;;;;;3.17;1.52;;;25.80;61.90;;;;;;2464309;55;21786;-82
2021/08/13 02:52:50;;;;;;;3.17;1.67;;;25.80;61.80;;;;;;2243020;55;21000;-84
2021/08/13 02:55:19;;;;;;;4.07;1.95;;;25.80;61.60;;;;;;2462110;55;21934;-84
2021/08/13 02:57:49;;;;;;;3.65;1.77;;;25.80;61.70;;;;;;2250264;55;21063;-84
2021/08/13 03:00:15;;;;;;;4.95;2.00;;;25.80;61.40;;;;;;2460640;55;21007;-84
2021/08/13 03:02:41;;;;;;;4.65;1.80;;;25.80;61.50;;;;;;2243884;55;21025;-84
2021/08/13 03:05:08;;;;;;;3.85;1.95;;;25.70;61.50;;;;;;2440215;55;21029;-84
2021/08/13 03:07:35;;;;;;;3.97;2.08;;;25.70;61.50;;;;;;2461042;55;21024;-84
2021/08/13 03:10:01;;;;;;;3.78;2.00;;;25.70;61.50;;;;;;2461708;55;20967;-84
2021/08/13 03:12:27;;;;;;;3.55;1.85;;;25.70;61.40;;;;;;2463175;55;20960;-84
2021/08/13 03:14:54;;;;;;;3.65;1.98;;;25.70;61.50;;;;;;2244480;55;20952;-84
2021/08/13 03:17:20;;;;;;;3.37;1.80;;;25.70;61.50;;;;;;2242681;55;21111;-83
2021/08/13 03:19:46;;;;;;;3.37;1.92;;;25.70;62.30;;;;;;2462994;55;21002;-83
2021/08/13 03:22:12;;;;;;;3.80;2.10;;;25.60;61.50;;;;;;2460477;55;20995;-83
2021/08/13 03:24:39;;;;;;;3.62;1.85;;;25.60;61.50;;;;;;2242184;55;20948;-84
2021/08/13 03:27:05;;;;;;;4.57;1.73;;;25.60;61.50;;;;;;2241944;55;21018;-84
2021/08/13 03:29:31;;;;;;;4.00;1.65;;;25.50;61.40;;;;;;2460166;55;20936;-84
2021/08/13 03:31:59;;;;;;;3.20;1.40;;;25.50;61.30;;;;;;2243102;55;20996;-85
2021/08/13 03:34:25;;;;;;;5.75;1.80;;;25.50;61.40;;;;;;2463644;55;21001;-84
2021/08/13 03:36:52;;;;;;;3.50;1.87;;;25.50;61.40;;;;;;2243469;55;21013;-83
2021/08/13 03:39:18;;;;;;;3.53;1.90;;;25.50;61.40;;;;;;2459939;55;21055;-84
2021/08/13 03:41:45;;;;;;;3.35;1.52;;;25.60;61.50;;;;;;2462168;55;21427;-83
2021/08/13 03:44:11;;;;;;;4.60;1.87;;;25.50;61.40;;;;;;2248064;55;20980;-84
2021/08/13 03:46:37;;;;;;;4.53;2.30;;;25.60;61.40;;;;;;2227626;56;20992;-84
2021/08/13 03:49:04;;;;;;;5.53;2.05;;;25.50;61.30;;;;;;2460034;55;21053;-84
2021/08/13 03:51:30;;;;;;;5.53;2.10;;;25.50;61.30;;;;;;2250116;55;20960;-83
2021/08/13 03:53:56;;;;;;;3.75;1.90;;;25.50;61.30;;;;;;2458794;55;21016;-84
2021/08/13 03:56:23;;;;;;;3.65;1.50;;;25.50;61.30;;;;;;2245674;55;20988;-83
2021/08/13 03:58:49;;;;;;;4.22;1.90;;;25.50;61.20;;;;;;2249064;55;20997;-83
2021/08/13 04:01:15;;;;;;;3.65;1.67;;;25.50;61.30;;;;;;2459529;55;22317;-84
2021/08/13 04:03:42;;;;;;;4.45;1.83;;;25.50;61.30;;;;;;2462198;55;21001;-82
2021/08/13 04:06:08;;;;;;;4.90;1.83;;;25.40;61.10;;;;;;2245856;55;20993;-81
2021/08/13 04:08:35;;;;;;;4.10;1.83;;;25.40;61.10;;;;;;2461701;55;20965;-81
2021/08/13 04:11:01;;;;;;;2.90;1.70;;;25.40;61.20;;;;;;2243557;55;21089;-82
2021/08/13 04:13:27;;;;;;;3.37;1.85;;;25.40;61.20;;;;;;2244015;55;20972;-82
2021/08/13 04:15:53;;;;;;;3.37;1.50;;;25.40;61.20;;;;;;2242371;55;20968;-82
2021/08/13 04:18:20;;;;;;;5.53;1.40;;;25.30;61.00;;;;;;2243353;55;21012;-81
2021/08/13 04:20:47;;;;;;;3.42;1.87;;;25.30;61.10;;;;;;2461397;55;20971;-82
2021/08/13 04:23:13;;;;;;;2.50;1.42;;;25.30;61.10;;;;;;2245057;55;21042;-82
2021/08/13 04:25:39;;;;;;;4.22;1.55;;;25.30;61.20;;;;;;2459945;55;21064;-82
2021/08/13 04:28:05;;;;;;;2.60;1.33;;;25.30;61.20;;;;;;2460875;55;20972;-83
2021/08/13 04:30:33;;;;;;;3.95;1.65;;;25.20;61.20;;;;;;2460688;55;21421;-82
2021/08/13 04:32:59;;;;;;;3.62;1.48;;;25.20;61.20;;;;;;2460078;55;20989;-81
2021/08/13 04:35:25;;;;;;;3.30;1.62;;;25.20;61.20;;;;;;2459959;55;20985;-82
2021/08/13 04:37:51;;;;;;;5.03;1.87;;;25.10;61.20;;;;;;2458790;55;20929;-83
2021/08/13 04:40:18;;;;;;;4.97;1.58;;;25.10;61.20;;;;;;2251324;55;21020;-82
2021/08/13 04:42:44;;;;;;;3.62;1.60;;;25.10;61.20;;;;;;2243504;55;20960;-82
2021/08/13 04:45:10;;;;;;;3.72;1.55;;;25.00;61.20;;;;;;2241856;55;21024;-82
2021/08/13 04:47:37;;;;;;;2.75;1.42;;;25.00;61.30;;;;;;2254007;55;135871;-68
2021/08/13 04:50:04;;;;;;;4.18;1.90;;;25.00;61.40;;;;;;2275116;55;21024;-66
2021/08/13 04:52:40;;;;;;;2.95;1.65;;;25.00;61.50;;;;;;2295358;55;20949;-65
2021/08/13 04:55:07;;;;;;;4.22;1.90;;;24.90;61.40;;;;;;2296083;55;21014;-66
2021/08/13 04:57:33;;;;;;;3.67;1.60;;;24.90;61.50;;;;;;2293529;55;20941;-66
2021/08/13 05:00:00;;;;;;;2.83;1.48;;;24.90;61.50;;;;;;2291028;55;21041;-67
2021/08/13 05:02:27;;;;;;;3.08;1.50;;;24.80;61.50;;;;;;2289353;55;21526;-67
2021/08/13 05:04:59;;;;;;;3.22;1.62;;;24.80;61.60;;;;;;2293149;55;20954;-67
2021/08/13 05:07:28;;;;;;;4.32;1.60;;;24.70;61.60;;;;;;2279073;55;21980;-68
2021/08/13 05:09:54;;;;;;;3.20;1.60;;;24.70;61.80;;;;;;2293734;55;21089;-66
2021/08/13 05:12:21;;;;;;;3.35;1.75;;;24.70;61.90;;;;;;2296784;55;20997;-66
2021/08/13 05:14:47;;;;;;;3.33;1.92;;;24.70;62.00;;;;;;2314008;54;20990;-68
2021/08/13 05:17:16;;;;;;;3.78;1.60;;;24.70;62.10;;;;;;2293582;55;21021;-66
2021/08/13 05:19:44;;;;;;;2.67;1.33;;;24.70;62.20;;;;;;2520929;54;20954;-67
2021/08/13 05:22:10;;;;;;;3.28;1.55;;;24.70;62.30;;;;;;2288600;55;21069;-66
2021/08/13 05:24:37;;;;;;;3.80;1.58;;;24.60;62.30;;;;;;2295366;55;20962;-67
2021/08/13 05:27:03;;;;;;;6.65;2.10;;;24.70;62.50;;;;;;2296253;55;20969;-66
2021/08/13 05:29:29;;;;;;;3.25;1.75;;;24.60;62.50;;;;;;2502272;54;20953;-67
2021/08/13 05:31:55;;;;;;;3.25;1.52;;;24.60;62.60;;;;;;2312404;55;20993;-66
2021/08/13 05:34:22;;;;;;;4.43;1.73;;;24.60;62.70;;;;;;2298767;55;21458;-66
2021/08/13 05:36:48;;;;;;;3.30;1.67;;;24.60;62.80;;;;;;2293862;55;21088;-70
2021/08/13 05:39:14;;;;;;;4.10;1.65;;;24.70;62.90;;;;;;2292161;55;21027;-66
2021/08/13 05:41:44;;;;;;;5.25;1.60;;;24.60;63.00;;;;;;2294002;55;20968;-68
2021/08/13 05:44:10;;;;;;;3.78;1.77;;;24.70;63.10;;;;;;2273235;55;20926;-67
2021/08/13 05:46:36;;;;;;;4.28;1.58;;;24.70;63.20;;;;;;2295216;55;21022;-69
2021/08/13 05:49:02;;;;;;;3.85;1.77;;;24.70;63.30;;;;;;2298287;55;20946;-67
2021/08/13 05:51:29;;;;;;;4.45;1.70;;;24.80;63.40;;;;;;2398255;54;21099;-69
2021/08/13 05:53:55;;;;;;;3.30;1.75;;;24.80;63.40;;;;;;2294139;55;21006;-69
2021/08/13 05:56:21;;;;;;;3.72;1.60;;;24.80;63.50;;;;;;2291488;55;20933;-67
2021/08/13 05:58:47;;;;;;;4.35;1.50;;;24.90;63.60;;;;;;2278424;55;20982;-68
2021/08/13 06:01:13;;;;;;;4.62;1.70;;;24.90;63.60;;;;;;2366687;54;20989;-67
2021/08/13 06:03:40;;;;;;;3.67;1.52;;;25.00;63.80;;;;;;2297583;55;20981;-66
2021/08/13 06:06:08;;;;;;;3.67;1.58;;;25.00;63.70;;;;;;2269625;55;20981;-66
2021/08/13 06:08:34;;;;;;;6.03;1.73;;;25.10;63.60;;;;;;2294498;55;20973;-66
2021/08/13 06:11:01;;;;;;;5.57;1.58;;;25.20;63.60;;;;;;2291364;55;20953;-66
2021/08/13 06:13:28;;;;;;;3.20;1.67;;;25.30;63.60;;;;;;2277019;55;21013;-67
2021/08/13 06:15:55;;;;;;;3.67;1.50;;;25.40;63.60;;;;;;2293790;55;21005;-66
2021/08/13 06:18:21;;;;;;;4.12;1.40;;;25.40;63.50;;;;;;2292946;55;21025;-66
2021/08/13 06:20:47;;;;;;;2.80;1.20;;;25.50;63.60;;;;;;2301267;55;21009;-66
2021/08/13 06:23:13;;;;;;;4.62;1.50;;;25.60;63.30;;;;;;2293857;55;21416;-70
2021/08/13 06:25:40;;;;;;;3.17;1.40;;;25.70;62.90;;;;;;2521080;54;20946;-67
2021/08/13 06:28:06;;;;;;;4.20;1.67;;;25.80;62.90;;;;;;2290144;55;20977;-67
2021/08/13 06:30:35;;;;;;;3.47;1.42;;;25.90;62.80;;;;;;2294620;55;21029;-68
2021/08/13 06:33:02;;;;;;;3.45;1.33;;;26.00;62.80;;;;;;2294967;55;21445;-66
2021/08/13 06:35:29;;;;;;;7.18;1.55;;;26.10;62.80;;;;;;2300015;55;21006;-66
2021/08/13 06:37:55;;;;;;;5.55;1.85;;;26.20;62.40;;;;;;2293083;55;21775;-67
2021/08/13 06:40:22;;;;;;;3.28;1.58;;;26.30;62.20;;;;;;2296976;55;21041;-68
2021/08/13 06:42:48;;;;;;;4.10;1.33;;;26.40;62.20;;;;;;2294052;55;20927;-67
2021/08/13 06:45:20;;;;;;;5.45;1.50;;;26.50;62.20;;;;;;2290184;55;20973;-68
2021/08/13 06:47:46;;;;;;;2.97;1.37;;;26.50;61.90;;;;;;2296939;55;21019;-68
2021/08/13 06:50:13;;;;;;;3.90;1.55;;;26.60;61.70;;;;;;2274132;55;22432;-66
2021/08/13 06:52:39;;;;;;;4.30;1.55;;;26.70;61.50;;;;;;2306369;54;21029;-67
2021/08/13 06:55:06;;;;;;;6.12;1.73;;;26.80;61.50;;;;;;2521722;54;21963;-66
2021/08/13 06:57:32;;;;;;;3.83;1.52;;;26.90;61.40;;;;;;2494676;54;22532;-66
2021/08/13 07:00:01;;;;;;;4.47;1.30;;;27.00;61.20;;;;;;2292656;55;21105;-68
2021/08/13 07:02:27;;;;;;;4.85;1.70;;;27.10;61.00;;;;;;2295321;55;21005;-67
2021/08/13 07:04:54;;;;;;;4.80;1.55;;;27.20;61.00;;;;;;2298137;55;21943;-66
2021/08/13 07:07:20;;;;;;;5.93;2.03;;;27.30;61.00;;;;;;2292608;55;21029;-73
2021/08/13 07:09:49;;;;;;;4.40;1.60;;;27.40;60.90;;;;;;2293154;55;21025;-70
2021/08/13 07:12:18;;;;;;;4.72;1.55;;;27.50;60.30;;;;;;2274626;55;20956;-71
2021/08/13 07:14:47;;;;;;;3.87;1.37;;;27.60;60.50;;;;;;2291509;55;20980;-72
2021/08/13 07:17:14;;;;;;;7.10;2.47;;;27.70;60.30;;;;;;2422525;54;21073;-70
2021/08/13 07:19:40;;;;;;;4.95;2.10;;;27.80;60.40;;;;;;2293628;55;21005;-74
2021/08/13 07:22:07;;;;;;;6.60;1.80;;;27.90;59.90;;;;;;2290339;55;21080;-71
2021/08/13 07:24:34;;;;;;;7.72;1.98;;;28.00;59.60;;;;;;2296722;55;21967;-72
2021/08/13 07:27:01;;;;;;;5.62;1.75;;;28.00;59.80;;;;;;2297989;55;21069;-70
2021/08/13 07:29:27;;;;;;;6.05;2.08;;;28.10;59.50;;;;;;2296015;55;20987;-70
2021/08/13 07:31:55;;;;;;;5.15;1.95;;;28.20;58.80;;;;;;2313175;54;20970;-69
2021/08/13 07:34:22;;;;;;;6.20;1.70;;;28.30;58.80;;;;;;2291566;55;21041;-69
2021/08/13 07:36:49;;;;;;;4.30;1.87;;;28.40;58.60;;;;;;2522500;54;20953;-72
2021/08/13 07:39:22;;;;;;;6.12;2.08;;;28.50;58.10;;;;;;2285689;55;21752;-69
2021/08/13 07:41:51;;;;;;;4.43;1.90;;;28.50;57.80;;;;;;2434179;54;21014;-71
2021/08/13 07:44:18;;;;;;;5.62;1.52;;;28.60;57.70;;;;;;2297770;55;21005;-70
2021/08/13 07:46:52;;;;;;;5.28;1.70;;;28.70;58.10;;;;;;2299343;55;21026;-70
2021/08/13 07:49:19;;;;;;;5.60;1.65;;;28.90;58.00;;;;;;2297615;55;21042;-73
2021/08/13 07:51:46;;;;;;;4.93;1.77;;;29.00;58.20;;;;;;2506387;54;21031;-69
2021/08/13 07:54:14;;;;;;;4.10;1.83;;;29.10;57.90;;;;;;2278896;55;21517;-72
2021/08/13 07:56:43;;;;;;;5.78;1.87;;;29.20;57.90;;;;;;2299637;55;20990;-73
2021/08/13 07:59:09;;;;;;;4.10;1.60;;;29.30;57.50;;;;;;2294383;54;21521;-72
2021/08/13 08:01:36;;;;;;;4.32;1.37;;;29.40;57.50;;;;;;2298140;55;20984;-71
2021/08/13 08:04:04;;;;;;;3.90;1.67;;;29.50;57.20;;;;;;2293433;55;20988;-69
2021/08/13 08:06:37;;;;;;;6.50;2.17;;;29.60;56.30;;;;;;2300945;55;21783;-69
2021/08/13 08:09:04;;;;;;;6.25;2.10;;;29.70;55.90;;;;;;2291735;55;21988;-73
2021/08/13 08:11:31;;;;;;;4.35;2.00;;;29.70;55.90;;;;;;2296171;55;21016;-72
2021/08/13 08:13:57;;;;;;;5.40;1.90;;;29.70;55.50;;;;;;2310222;54;21097;-71
2021/08/13 08:16:24;;;;;;;6.10;2.37;;;29.70;55.30;;;;;;2323652;54;20975;-71
2021/08/13 08:18:50;;;;;;;4.60;1.67;;;29.70;55.20;;;;;;2278460;55;20977;-70
2021/08/13 08:21:16;;;;;;;4.72;1.70;;;29.70;55.30;;;;;;2457846;54;20972;-69
2021/08/13 08:23:42;;;;;;;5.90;1.80;;;29.70;55.20;;;;;;2521172;54;21014;-73
2021/08/13 08:26:09;;;;;;;6.62;2.10;;;29.70;55.40;;;;;;2293222;55;22084;-73
2021/08/13 08:28:42;;;;;;;4.75;1.60;;;29.80;55.20;;;;;;2300923;55;21133;-73
2021/08/13 08:31:09;;;;;;;5.28;1.65;;;29.80;54.70;;;;;;2315165;54;21057;-70
2021/08/13 08:33:38;;;;;;;5.65;1.87;;;29.90;55.00;;;;;;2295331;55;21025;-71
2021/08/13 08:36:05;;;;;;;4.65;1.67;;;29.90;54.60;;;;;;2302469;54;20983;-72
2021/08/13 08:38:31;;;;;;;4.65;2.03;;;29.90;55.00;;;;;;2359700;54;142137;-84
2021/08/13 08:41:04;;;;;;;4.75;1.80;;;29.90;54.90;;;;;;2543451;53;20941;-84
2021/08/13 08:43:30;;;;;;;5.25;2.10;;;30.00;54.60;;;;;;2297128;54;20990;-84
2021/08/13 08:45:56;;;;;;;5.25;1.85;;;30.00;54.70;;;;;;2554553;53;20987;-84
2021/08/13 08:48:23;;;;;;;7.55;1.77;;;30.10;54.80;;;;;;2538822;53;21045;-84
2021/08/13 08:50:49;;;;;;;4.20;2.00;;;30.10;54.30;;;;;;2279797;54;20943;-83
2021/08/13 08:53:23;;;;;;;5.03;1.60;;;30.10;54.10;;;;;;2313396;54;20959;-84
2021/08/13 08:55:50;;;;;;;5.05;2.03;;;30.20;54.10;;;;;;2521562;53;20981;-84
2021/08/13 08:58:20;;;;;;;3.62;1.70;;;30.20;54.10;;;;;;2548196;53;21969;-84
2021/08/13 09:00:46;;;;;;;5.70;1.83;;;30.20;54.20;;;;;;2305110;54;20968;-85
2021/08/13 09:03:13;;;;;;;13.27;2.15;;;30.30;54.40;;;;;;2530003;53;21014;-85
2021/08/13 09:05:40;;;;;;;5.45;2.25;;;30.30;54.60;;;;;;2307965;54;20966;-84
2021/08/13 09:08:06;;;;;;;5.32;1.80;;;30.30;55.10;;;;;;2304614;54;20961;-84
2021/08/13 09:10:33;;;;;;;4.80;2.00;;;30.40;54.30;;;;;;2323254;54;21083;-85
2021/08/13 09:13:04;;;;;;;7.93;2.22;;;30.50;54.40;;;;;;2319415;54;20938;-83
2021/08/13 09:15:34;;;;;;;5.32;1.95;;;30.50;54.00;;;;;;2521172;54;21511;-84
2021/08/13 09:19:53;;;;;;;3.70;1.75;;;30.60;54.20;;;;;;2312006;54;20975;-84
2021/08/13 09:22:20;;;;;;;8.48;1.92;;;30.70;54.20;;;;;;2312293;54;21029;-82
2021/08/13 09:24:49;;;;;;;4.57;1.70;;;30.70;54.30;;;;;;2305293;54;20961;-82
2021/08/13 09:27:33;;;;;;;6.05;2.03;;;30.70;53.80;;;;;;2310742;54;20938;-81
2021/08/13 09:30:17;;;;;;;4.97;2.12;;;30.80;53.60;;;;;;2552338;53;21897;-81
2021/08/13 09:32:55;;;;;;;6.18;1.80;;;30.80;53.60;;;;;;2323971;54;21017;-82
2021/08/13 09:35:32;;;;;;;5.25;2.05;;;30.80;54.20;;;;;;2553174;53;20981;-81
2021/08/13 09:37:59;;;;;;;4.20;1.67;;;30.80;54.10;;;;;;2552702;53;20984;-82
2021/08/13 09:40:25;;;;;;;4.45;1.70;;;30.70;54.10;;;;;;2540421;53;21806;-82
2021/08/13 09:43:00;;;;;;;7.60;2.55;;;30.80;54.00;;;;;;2502017;54;21243;-82
2021/08/13 09:45:26;;;;;;;5.10;2.33;;;30.80;53.40;;;;;;2491004;54;21413;-82
2021/08/13 09:47:52;;;;;;;5.15;2.12;;;30.80;53.70;;;;;;2544750;53;20927;-82
2021/08/13 09:50:33;;;;;;;6.05;2.50;;;30.80;53.70;;;;;;2291660;54;20998;-82
2021/08/13 09:53:12;;;;;;;4.97;2.00;;;30.80;53.10;;;;;;2522500;54;20987;-81
2021/08/13 09:55:40;;;;;;;6.12;2.22;;;30.90;53.40;;;;;;2308863;54;22051;-81
2021/08/13 09:58:08;;;;;;;4.15;1.92;;;30.90;53.90;;;;;;2319920;54;20981;-81
2021/08/13 10:00:47;;;;;;;4.18;1.95;;;30.90;54.10;;;;;;2550223;53;20977;-81
2021/08/13 10:03:14;;;;;;;6.45;2.33;;;31.00;53.90;;;;;;2320771;54;20985;-81
2021/08/13 10:05:41;;;;;;;4.35;1.98;;;31.00;54.00;;;;;;2319156;54;21029;-81
2021/08/13 10:08:08;;;;;;;4.53;2.00;;;31.10;54.00;;;;;;2322123;54;20937;-81
2021/08/13 10:10:43;;;;;;;7.78;2.58;;;31.10;54.20;;;;;;2552541;53;21559;-81
2021/08/13 10:13:10;;;;;;;4.30;2.17;;;31.20;53.60;;;;;;2551400;53;20925;-81
2021/08/13 10:15:38;;;;;;;4.40;2.40;;;31.20;53.90;;;;;;2554286;53;21149;-82
2021/08/13 10:18:08;;;;;;;5.50;2.20;;;31.30;54.30;;;;;;2315228;54;21036;-82
2021/08/13 10:20:47;;;;;;;5.93;2.05;;;31.40;54.00;;;;;;2323408;54;20953;-83
2021/08/13 10:23:14;;;;;;;5.43;2.28;;;31.40;53.80;;;;;;2557606;53;20979;-82
2021/08/13 10:25:43;;;;;;;3.97;1.92;;;31.50;53.90;;;;;;2558166;53;20946;-81
2021/08/13 10:28:09;;;;;;;7.30;2.28;;;31.50;53.60;;;;;;2326354;54;20970;-82
2021/08/13 10:30:36;;;;;;;5.20;2.12;;;31.60;53.70;;;;;;2554259;53;20934;-82
2021/08/13 10:33:03;;;;;;;5.35;2.12;;;31.60;53.70;;;;;;2322250;54;20997;-82
2021/08/13 10:35:34;;;;;;;4.28;2.05;;;31.70;53.70;;;;;;2323650;54;20992;-82
2021/08/13 10:38:02;;;;;;;8.70;2.58;;;31.70;53.70;;;;;;2554445;53;21983;-83
2021/08/13 10:40:29;;;;;;;4.12;1.95;;;31.80;53.60;;;;;;2551293;53;21024;-82
2021/08/13 10:42:56;;;;;;;5.47;2.17;;;31.90;53.70;;;;;;2323659;54;20983;-83
2021/08/13 10:45:23;;;;;;;4.78;2.33;;;32.00;53.60;;;;;;2324295;54;21836;-83
2021/08/13 10:48:00;;;;;;;5.20;2.50;;;32.00;53.40;;;;;;2319425;54;20993;-82
2021/08/13 10:50:27;;;;;;;4.85;2.30;;;32.10;52.80;;;;;;2541834;53;21529;-82
2021/08/13 10:52:53;;;;;;;4.37;2.37;;;32.20;53.20;;;;;;2317582;54;20942;-81
2021/08/13 10:55:42;;;;;;;6.15;2.55;;;32.20;53.10;;;;;;2549408;53;20925;-84
2021/08/13 10:58:10;;;;;;;5.87;2.80;;;32.30;52.30;;;;;;2323764;54;20990;-82
2021/08/13 11:01:21;;;;;;;4.65;2.53;;;32.30;52.70;;;;;;2552510;53;20946;-81
2021/08/13 11:04:20;;;;;;;5.22;2.85;;;32.30;51.90;;;;;;2540309;53;21763;-81
2021/08/13 11:06:48;;;;;;;5.03;2.40;;;32.40;51.70;;;;;;2550393;53;21820;-82
2021/08/13 11:09:38;;;;;;;4.03;2.40;;;32.30;52.30;;;;;;2554405;53;20993;-81
2021/08/13 11:12:12;;;;;;;4.70;2.28;;;32.40;51.80;;;;;;2322342;54;20973;-82
2021/08/13 11:14:52;;;;;;;5.87;2.53;;;32.30;52.10;;;;;;2553251;53;21009;-83
2021/08/13 11:17:43;;;;;;;6.35;2.83;;;32.30;52.10;;;;;;2549948;53;21037;-86
2021/08/13 11:20:13;;;;;;;9.38;2.53;;;32.30;51.80;;;;;;2321456;54;21011;-87
2021/08/13 11:22:40;;;;;;;4.50;2.70;;;32.30;52.50;;;;;;2322075;54;20932;-84
2021/08/13 11:25:08;;;;;;;5.60;2.70;;;32.40;52.50;;;;;;2553731;53;21013;-82
2021/08/13 11:27:35;;;;;;;6.15;2.87;;;32.30;52.30;;;;;;2554170;53;21001;-82
2021/08/13 11:30:01;;;;;;;5.03;2.62;;;32.30;52.00;;;;;;2553968;53;20989;-83
2021/08/13 11:32:39;;;;;;;5.10;2.42;;;32.30;52.10;;;;;;2553997;53;20958;-81
2021/08/13 11:35:07;;;;;;;4.62;2.67;;;32.30;51.80;;;;;;2552166;53;20927;-81
2021/08/13 11:37:51;;;;;;;5.62;2.78;;;32.30;52.30;;;;;;2514976;53;21052;-82
2021/08/13 11:40:39;;;;;;;5.70;3.03;;;32.30;52.10;;;;;;2552795;53;20993;-81
2021/08/13 11:43:05;;;;;;;4.80;2.62;;;32.40;52.20;;;;;;2545491;53;21017;-81
2021/08/13 11:45:35;;;;;;;5.80;2.70;;;32.40;52.90;;;;;;2321352;54;20929;-82
2021/08/13 11:48:02;;;;;;;4.57;2.62;;;32.40;52.80;;;;;;2279894;54;20940;-81
2021/08/13 11:50:29;;;;;;;5.00;2.35;;;32.50;53.00;;;;;;2320638;54;21021;-81
2021/08/13 11:52:56;;;;;;;4.55;2.67;;;32.60;53.20;;;;;;2552977;53;20945;-81
2021/08/13 11:55:27;;;;;;;4.87;2.72;;;32.60;53.20;;;;;;2540560;53;20926;-81
2021/08/13 11:57:54;;;;;;;5.60;3.10;;;32.70;53.00;;;;;;2326303;54;21045;-82
2021/08/13 12:00:22;;;;;;;6.10;3.50;;;32.70;52.70;;;;;;2325799;54;20962;-82
2021/08/13 12:03:13;;;;;;;6.45;2.97;;;32.80;52.40;;;;;;2322195;54;21925;-81
2021/08/13 12:05:41;;;;;;;4.15;2.50;;;32.80;52.20;;;;;;2512574;53;21770;-82
2021/08/13 12:08:09;;;;;;;4.28;2.87;;;32.90;52.50;;;;;;2553584;53;21836;-82
2021/08/13 12:10:36;;;;;;;4.43;2.78;;;33.00;52.60;;;;;;2552721;53;20993;-82
2021/08/13 12:13:08;;;;;;;4.28;2.65;;;33.10;52.70;;;;;;2320957;54;20941;-81
2021/08/13 12:15:39;;;;;;;4.10;2.30;;;33.10;52.40;;;;;;2521628;53;20950;-82
2021/08/13 12:18:06;;;;;;;;;;;33.20;52.50;;;;;;2317147;54;20964;-81
2021/08/13 12:20:34;;;;;;;3.85;2.55;;;33.30;52.60;;;;;;2551342;53;20079;-82
2021/08/13 12:23:07;;;;;;;6.28;2.45;;;33.40;52.60;;;;;;2317859;54;20984;-82
2021/08/13 12:25:40;;;;;;;4.55;2.58;;;33.40;52.50;;;;;;2552237;53;20966;-82
2021/08/13 12:28:06;;;;;;;5.65;3.17;;;33.50;52.20;;;;;;2533659;53;20935;-83
2021/08/13 12:30:33;;;;;;;5.62;3.33;;;33.50;52.30;;;;;;2299340;54;21050;-82
2021/08/13 12:33:00;;;;;;;4.55;2.70;;;33.60;52.20;;;;;;2325231;54;20977;-83
2021/08/13 12:35:40;;;;;;;4.78;2.85;;;33.70;52.00;;;;;;2322486;54;20946;-82
2021/08/13 12:38:07;;;;;;;4.65;2.70;;;33.70;51.40;;;;;;2554148;53;21437;-82
2021/08/13 12:40:41;;;;;;;4.72;2.90;;;33.80;51.90;;;;;;2550647;53;21037;-81
2021/08/13 12:43:08;;;;;;;5.78;3.22;;;33.90;51.60;;;;;;2311529;54;21119;-82
2021/08/13 12:45:45;;;;;;;5.55;3.25;;;34.00;51.60;;;;;;2495387;55;21054;-82
2021/08/13 12:48:11;;;;;;;5.93;3.40;;;34.10;51.40;;;;;;2264776;59;21066;-83
2021/08/13 12:50:37;;;;;;;4.72;3.40;;;34.10;50.90;;;;;;2492911;53;21065;-82
2021/08/13 12:53:13;;;;;;;5.20;3.08;;;34.20;50.50;;;;;;2315314;54;20922;-84
2021/08/13 12:55:47;;;;;;;7.85;2.85;;;34.30;50.50;;;;;;2263873;54;21974;-84
2021/08/13 12:58:35;;;;;;;5.30;3.50;;;34.40;49.60;;;;;;2545162;53;20957;-82
2021/08/13 13:01:21;;;;;;;4.95;3.12;;;34.50;48.70;;;;;;2324003;54;21015;-82